Time;durP1;ratioP1;P1;durP2;ratioP2;P2;SDS_P1;SDS_P2;PMS_P1;PMS_P2;Temp;Humidity;BMP_temperature;BMP_pressure;BME280_temperature;BME280_humidity;BME280_pressure;Samples;Min_cycle;Max_cycle;Signal;HPM_P1;HPM_P2
2023/08/30 00:00:54;;;;;;;;;;;15.20;99.90;;;;;;5095006;28;19907;-74
2023/08/30 00:03:19;;;;;;;;;;;15.20;99.90;;;;;;5095315;28;19957;-75
2023/08/30 00:05:45;;;;;;;;;;;15.30;99.90;;;;;;5095049;28;19976;-74
2023/08/30 00:08:13;;;;;;;;;;;15.30;99.90;;;;;;5098784;28;19947;-74
2023/08/30 00:10:39;;;;;;;;;;;15.30;99.90;;;;;;5097552;28;19904;-75
2023/08/30 00:13:04;;;;;;;;;;;15.40;99.90;;;;;;5097502;28;20376;-75
2023/08/30 00:15:30;;;;;;;;;;;15.40;99.90;;;;;;5094644;28;19908;-75
2023/08/30 00:17:55;;;;;;;;;;;15.40;99.90;;;;;;5097215;28;19911;-74
2023/08/30 00:20:21;;;;;;;;;;;15.40;99.90;;;;;;5096961;28;19904;-74
2023/08/30 00:22:48;;;;;;;;;;;15.40;99.90;;;;;;5096691;28;20445;-75
2023/08/30 00:25:14;;;;;;;;;;;15.40;99.90;;;;;;5098433;28;19942;-75
2023/08/30 00:27:39;;;;;;;;;;;15.40;99.90;;;;;;5098594;28;19904;-76
2023/08/30 00:30:05;;;;;;;;;;;15.40;99.90;;;;;;5097171;28;19908;-75
2023/08/30 00:32:31;;;;;;;;;;;15.40;99.90;;;;;;5098023;28;19915;-74
2023/08/30 00:34:56;;;;;;;;;;;15.40;99.90;;;;;;5098399;28;19904;-76
2023/08/30 00:37:22;;;;;;;;;;;15.40;99.90;;;;;;5098096;28;19912;-74
2023/08/30 00:39:47;;;;;;;;;;;15.40;99.90;;;;;;5098229;28;20303;-75
2023/08/30 00:42:13;;;;;;;;;;;15.40;99.90;;;;;;5084874;28;19994;-75
2023/08/30 00:44:38;;;;;;;;;;;15.40;99.90;;;;;;5098399;28;19911;-74
2023/08/30 00:47:04;;;;;;;;;;;15.40;99.90;;;;;;5098065;28;19907;-76
2023/08/30 00:49:30;;;;;;;;;;;15.50;99.90;;;;;;5096574;28;19995;-75
2023/08/30 00:51:56;;;;;;;;;;;15.40;99.90;;;;;;5098170;28;19908;-75
2023/08/30 00:54:22;;;;;;;;;;;15.40;99.90;;;;;;5097634;28;19948;-75
2023/08/30 00:56:47;;;;;;;;;;;15.30;99.90;;;;;;5096685;28;19962;-75
2023/08/30 00:59:13;;;;;;;;;;;15.30;99.90;;;;;;5098022;28;19904;-75
2023/08/30 01:01:40;;;;;;;;;;;15.30;99.90;;;;;;5098054;28;19903;-75
2023/08/30 01:04:05;;;;;;;;;;;15.20;99.90;;;;;;5097692;28;19908;-74
2023/08/30 01:06:31;;;;;;;;;;;15.20;99.90;;;;;;5098108;28;19959;-74
2023/08/30 01:08:56;;;;;;;;;;;15.10;99.90;;;;;;5095837;28;19993;-74
2023/08/30 01:11:29;;;;;;;;;;;15.00;99.90;;;;;;5097710;28;19990;-75
2023/08/30 01:13:58;;;;;;;;;;;15.10;99.90;;;;;;5096889;28;19931;-74
2023/08/30 01:16:24;;;;;;;;;;;15.10;99.90;;;;;;5097149;28;19947;-74
2023/08/30 01:18:52;;;;;;;;;;;15.10;99.90;;;;;;5096102;28;19915;-74
2023/08/30 01:21:26;;;;;;;;;;;15.10;99.90;;;;;;5097475;28;20302;-74
2023/08/30 01:23:56;;;;;;;;;;;15.10;99.90;;;;;;5097197;28;19912;-73
2023/08/30 01:26:28;;;;;;;;;;;15.10;99.90;;;;;;5097212;28;19969;-74
2023/08/30 01:28:55;;;;;;;;;;;15.20;99.90;;;;;;5097253;28;19991;-75
2023/08/30 01:31:21;;;;;;;;;;;15.20;99.90;;;;;;5097505;28;19904;-74
2023/08/30 01:33:48;;;;;;;;;;;15.20;99.90;;;;;;5095873;28;19908;-76
2023/08/30 01:36:14;;;;;;;;;;;15.20;99.90;;;;;;5097546;28;20633;-73
2023/08/30 01:38:41;;;;;;;;;;;15.20;99.90;;;;;;5096980;28;19908;-75
2023/08/30 01:41:06;;;;;;;;;;;15.30;99.90;;;;;;5097284;28;19904;-76
2023/08/30 01:43:32;;;;;;;;;;;15.30;99.90;;;;;;5096967;28;19911;-76
2023/08/30 01:45:59;;;;;;;;;;;15.30;99.90;;;;;;5097242;28;20072;-73
2023/08/30 01:48:26;;;;;;;;;;;15.30;99.90;;;;;;5097016;28;19904;-76
2023/08/30 01:50:51;;;;;;;;;;;15.30;99.90;;;;;;5095687;28;19926;-76
2023/08/30 01:53:17;;;;;;;;;;;15.30;99.90;;;;;;5096617;28;20023;-75
2023/08/30 01:55:43;;;;;;;;;;;15.30;99.90;;;;;;5097066;28;19955;-74
2023/08/30 01:58:09;;;;;;;;;;;15.30;99.90;;;;;;5095138;28;20372;-75
2023/08/30 02:00:38;;;;;;;;;;;15.20;99.90;;;;;;5095525;28;20384;-73
2023/08/30 02:03:10;;;;;;;;;;;15.20;99.90;;;;;;5094504;28;20356;-75
2023/08/30 02:05:37;;;;;;;;;;;15.20;99.90;;;;;;5088930;28;19909;-74
2023/08/30 02:08:02;;;;;;;;;;;15.20;99.90;;;;;;5091252;28;19939;-76
2023/08/30 02:10:32;;;;;;;;;;;15.20;99.90;;;;;;5096771;28;19908;-75
2023/08/30 02:12:59;;;;;;;;;;;15.20;99.90;;;;;;5096110;28;19915;-74
2023/08/30 02:15:25;;;;;;;;;;;15.20;99.90;;;;;;5094561;28;19916;-75
2023/08/30 02:17:51;;;;;;;;;;;15.10;99.90;;;;;;5095003;28;20287;-75
2023/08/30 02:20:17;;;;;;;;;;;15.10;99.90;;;;;;5095447;28;19907;-75
2023/08/30 02:22:42;;;;;;;;;;;15.10;99.90;;;;;;5093200;28;19904;-75
2023/08/30 02:25:08;;;;;;;;;;;15.10;99.90;;;;;;5096373;28;19993;-76
2023/08/30 02:27:34;;;;;;;;;;;15.10;99.90;;;;;;5096311;28;19916;-74
2023/08/30 02:30:00;;;;;;;;;;;15.10;99.90;;;;;;5094825;28;19904;-74
2023/08/30 02:32:26;;;;;;;;;;;15.10;99.90;;;;;;5096129;28;20273;-76
2023/08/30 02:34:52;;;;;;;;;;;15.00;99.90;;;;;;5096289;28;19911;-74
2023/08/30 02:37:18;;;;;;;;;;;15.00;99.90;;;;;;5094786;28;20279;-75
2023/08/30 02:39:43;;;;;;;;;;;15.00;99.90;;;;;;5092894;28;19911;-75
2023/08/30 02:42:09;;;;;;;;;;;15.00;99.90;;;;;;5084383;28;19915;-75
2023/08/30 02:44:34;;;;;;;;;;;15.00;99.90;;;;;;5096111;28;20368;-74
2023/08/30 02:47:00;;;;;;;;;;;15.10;99.90;;;;;;5095983;28;20346;-75
2023/08/30 02:49:25;;;;;;;;;;;15.00;99.90;;;;;;5096145;28;19908;-75
2023/08/30 02:51:51;;;;;;;;;;;15.10;99.90;;;;;;5096132;28;19908;-75
2023/08/30 02:54:17;;;;;;;;;;;15.10;99.90;;;;;;5094106;28;20337;-75
2023/08/30 02:56:45;;;;;;;;;;;15.10;99.90;;;;;;5095955;28;20367;-75
2023/08/30 02:59:11;;;;;;;;;;;15.20;99.90;;;;;;5095685;28;19904;-74
2023/08/30 03:01:37;;;;;;;;;;;15.20;99.90;;;;;;5095503;28;19947;-73
2023/08/30 03:04:06;;;;;;;;;;;15.30;99.90;;;;;;5094600;28;19904;-74
2023/08/30 03:06:35;;;;;;;;;;;15.30;99.90;;;;;;5095708;28;20294;-73
2023/08/30 03:09:01;;;;;;;;;;;15.30;99.90;;;;;;5094289;28;19915;-75
2023/08/30 03:11:26;;;;;;;;;;;15.30;99.90;;;;;;5095465;28;20364;-76
2023/08/30 03:13:55;;;;;;;;;;;15.30;99.90;;;;;;5095553;28;20011;-75
2023/08/30 03:16:21;;;;;;;;;;;15.30;99.90;;;;;;5094457;28;19908;-76
2023/08/30 03:18:46;;;;;;;;;;;15.30;99.90;;;;;;5094149;28;19954;-74
2023/08/30 03:21:12;;;;;;;;;;;15.30;99.90;;;;;;5095728;28;20357;-75
2023/08/30 03:23:38;;;;;;;;;;;15.20;99.90;;;;;;5094957;28;19904;-75
2023/08/30 03:26:14;;;;;;;;;;;15.20;99.90;;;;;;5095647;28;19916;-74
2023/08/30 03:28:40;;;;;;;;;;;15.20;99.90;;;;;;5095542;28;20359;-75
2023/08/30 03:31:16;;;;;;;;;;;15.20;99.90;;;;;;5095836;28;19961;-75
2023/08/30 03:33:42;;;;;;;;;;;15.20;99.90;;;;;;5081821;28;20314;-76
2023/08/30 03:36:09;;;;;;;;;;;15.20;99.90;;;;;;5094313;28;19934;-74
2023/08/30 03:38:34;;;;;;;;;;;15.20;99.90;;;;;;5095311;28;19915;-74
2023/08/30 03:41:00;;;;;;;;;;;15.20;99.90;;;;;;5097592;28;19904;-75
2023/08/30 03:43:25;;;;;;;;;;;15.20;99.90;;;;;;5097956;28;19915;-75
2023/08/30 03:45:52;;;;;;;;;;;15.20;99.90;;;;;;5099525;28;19908;-74
2023/08/30 03:48:18;;;;;;;;;;;15.20;99.90;;;;;;5098101;28;20051;-76
2023/08/30 03:50:43;;;;;;;;;;;15.20;99.90;;;;;;5097949;28;19908;-74
2023/08/30 03:53:09;;;;;;;;;;;15.20;99.90;;;;;;5098783;28;19908;-75
2023/08/30 03:55:34;;;;;;;;;;;15.20;99.90;;;;;;5097765;28;19908;-76
2023/08/30 03:58:00;;;;;;;;;;;15.20;99.90;;;;;;5097889;28;19953;-75
2023/08/30 04:00:25;;;;;;;;;;;15.20;99.90;;;;;;5085640;28;19954;-76
2023/08/30 04:02:51;;;;;;;;;;;15.30;99.90;;;;;;5097585;28;20004;-77
2023/08/30 04:05:16;;;;;;;;;;;15.30;99.90;;;;;;5098966;28;19907;-76
2023/08/30 04:07:42;;;;;;;;;;;15.30;99.90;;;;;;5097126;28;19908;-76
2023/08/30 04:10:07;;;;;;;;;;;15.40;99.90;;;;;;5087425;28;19908;-76
2023/08/30 04:12:34;;;;;;;;;;;15.40;99.90;;;;;;5098133;28;19904;-75
2023/08/30 04:15:00;;;;;;;;;;;15.40;99.90;;;;;;5099030;28;19919;-75
2023/08/30 04:17:26;;;;;;;;;;;15.40;99.90;;;;;;5098625;28;19904;-76
2023/08/30 04:19:52;;;;;;;;;;;15.40;99.90;;;;;;5098556;28;20330;-76
2023/08/30 04:22:18;;;;;;;;;;;15.40;99.90;;;;;;5097144;28;19981;-75
2023/08/30 04:24:43;;;;;;;;;;;15.40;99.90;;;;;;5097301;28;19904;-75
2023/08/30 04:27:09;;;;;;;;;;;15.40;99.90;;;;;;5097228;28;19914;-76
2023/08/30 04:29:34;;;;;;;;;;;15.40;99.90;;;;;;5098386;28;19975;-75
2023/08/30 04:32:00;;;;;;;;;;;15.40;99.90;;;;;;5097189;28;19904;-75
2023/08/30 04:34:26;;;;;;;;;;;15.50;99.90;;;;;;5098561;28;19908;-75
2023/08/30 04:36:51;;;;;;;;;;;15.50;99.90;;;;;;5098056;28;20291;-75
2023/08/30 04:39:17;;;;;;;;;;;15.40;99.90;;;;;;5098252;28;20470;-74
2023/08/30 04:41:42;;;;;;;;;;;15.40;99.90;;;;;;5098344;28;19998;-74
2023/08/30 04:44:08;;;;;;;;;;;15.40;99.90;;;;;;5096889;28;20007;-75
2023/08/30 04:46:33;;;;;;;;;;;15.40;99.90;;;;;;5098272;28;20030;-75
2023/08/30 04:48:59;;;;;;;;;;;15.40;99.90;;;;;;5096661;28;19908;-75
2023/08/30 04:51:24;;;;;;;;;;;15.40;99.90;;;;;;5096980;28;19951;-75
2023/08/30 04:53:50;;;;;;;;;;;15.40;99.90;;;;;;5097342;28;19957;-75
2023/08/30 04:56:18;;;;;;;;;;;15.40;99.90;;;;;;5097977;28;19904;-76
2023/08/30 04:58:43;;;;;;;;;;;15.40;99.90;;;;;;5096746;28;19914;-75
2023/08/30 05:01:09;;;;;;;;;;;15.30;99.90;;;;;;5096135;28;19912;-76
2023/08/30 05:03:34;;;;;;;;;;;15.30;99.90;;;;;;5098054;28;20483;-76
2023/08/30 05:06:00;;;;;;;;;;;15.30;99.90;;;;;;5092310;28;20003;-76
2023/08/30 05:08:26;;;;;;;;;;;15.20;99.90;;;;;;5089853;28;20368;-75
2023/08/30 05:10:54;;;;;;;;;;;15.20;99.90;;;;;;5097649;28;19904;-76
2023/08/30 05:13:19;;;;;;;;;;;15.20;99.90;;;;;;5097728;28;19908;-76
2023/08/30 05:15:45;;;;;;;;;;;15.10;99.90;;;;;;5097438;28;19915;-74
2023/08/30 05:18:11;;;;;;;;;;;15.20;99.90;;;;;;5097825;28;19926;-76
2023/08/30 05:20:36;;;;;;;;;;;15.10;99.90;;;;;;5097487;28;19910;-75
2023/08/30 05:23:02;;;;;;;;;;;15.10;99.90;;;;;;5097452;28;19904;-75
2023/08/30 05:25:28;;;;;;;;;;;15.10;99.90;;;;;;5097291;28;19923;-75
2023/08/30 05:27:53;;;;;;;;;;;15.10;99.90;;;;;;5097157;28;20007;-76
2023/08/30 05:30:19;;;;;;;;;;;15.10;99.90;;;;;;5097428;28;20003;-75
2023/08/30 05:32:45;;;;;;;;;;;15.00;99.90;;;;;;5097436;28;20418;-76
2023/08/30 05:35:10;;;;;;;;;;;15.10;99.90;;;;;;5097172;28;19944;-76
2023/08/30 05:37:36;;;;;;;;;;;15.10;99.90;;;;;;5087433;28;19912;-76
2023/08/30 05:40:02;;;;;;;;;;;15.10;99.90;;;;;;5092668;28;19908;-75
2023/08/30 05:42:28;;;;;;;;;;;15.10;99.90;;;;;;5097126;28;19910;-76
2023/08/30 05:44:53;;;;;;;;;;;15.10;99.90;;;;;;5096992;28;19904;-76
2023/08/30 05:47:20;;;;;;;;;;;15.20;99.90;;;;;;5097068;28;20003;-76
2023/08/30 05:49:45;;;;;;;;;;;15.20;99.90;;;;;;5095560;28;20381;-76
2023/08/30 05:52:11;;;;;;;;;;;15.20;99.90;;;;;;5097259;28;19950;-75
2023/08/30 05:54:36;;;;;;;;;;;15.20;99.90;;;;;;5096969;28;19918;-75
2023/08/30 05:57:03;;;;;;;;;;;15.20;99.90;;;;;;5097038;28;19904;-76
2023/08/30 05:59:28;;;;;;;;;;;15.20;99.90;;;;;;5094076;28;19952;-76
2023/08/30 06:01:54;;;;;;;;;;;15.30;99.90;;;;;;5095591;28;19908;-76
2023/08/30 06:04:20;;;;;;;;;;;15.30;99.90;;;;;;5094806;28;20485;-76
2023/08/30 06:06:45;;;;;;;;;;;15.30;99.90;;;;;;5090497;28;19919;-76
2023/08/30 06:09:12;;;;;;;;;;;15.30;99.90;;;;;;5078294;28;20355;-77
2023/08/30 06:11:38;;;;;;;;;;;15.40;99.90;;;;;;5089522;28;19908;-76
2023/08/30 06:14:04;;;;;;;;;;;15.40;99.90;;;;;;5093390;28;19908;-78
2023/08/30 06:16:29;;;;;;;;;;;15.40;99.90;;;;;;5087446;28;19908;-78
2023/08/30 06:18:55;;;;;;;;;;;15.50;99.90;;;;;;5096615;28;20362;-77
2023/08/30 06:21:20;;;;;;;;;;;15.50;99.90;;;;;;5089382;28;19948;-79
2023/08/30 06:23:46;;;;;;;;;;;15.50;99.90;;;;;;5094944;28;19910;-76
2023/08/30 06:26:11;;;;;;;;;;;15.60;99.90;;;;;;5096220;28;19979;-77
2023/08/30 06:28:37;;;;;;;;;;;15.70;99.90;;;;;;5091686;28;19983;-76
2023/08/30 06:31:03;;;;;;;;;;;15.70;99.90;;;;;;5082104;28;19912;-77
2023/08/30 06:33:28;;;;;;;;;;;15.70;99.90;;;;;;5080185;28;19909;-78
2023/08/30 06:35:54;;;;;;;;;;;15.80;99.90;;;;;;5089335;28;19908;-78
2023/08/30 06:38:20;;;;;;;;;;;15.80;99.90;;;;;;5087304;28;19904;-77
2023/08/30 06:40:46;;;;;;;;;;;15.90;99.90;;;;;;5096259;28;20359;-77
2023/08/30 06:43:12;;;;;;;;;;;16.00;99.90;;;;;;5095986;28;20321;-77
2023/08/30 06:45:41;;;;;;;;;;;16.00;99.90;;;;;;5096208;28;20420;-78
2023/08/30 06:48:10;;;;;;;;;;;16.10;99.90;;;;;;5094411;28;19904;-78
2023/08/30 06:50:36;;;;;;;;;;;16.20;99.90;;;;;;5087351;28;19908;-77
2023/08/30 06:53:02;;;;;;;;;;;16.30;99.90;;;;;;5074127;28;19912;-78
2023/08/30 06:55:28;;;;;;;;;;;16.40;99.90;;;;;;5082982;28;19915;-77
2023/08/30 06:57:54;;;;;;;;;;;16.40;99.90;;;;;;5094137;28;19911;-78
2023/08/30 07:00:20;;;;;;;;;;;16.50;99.90;;;;;;5095689;28;19915;-76
2023/08/30 07:02:46;;;;;;;;;;;16.50;99.90;;;;;;5096620;28;19904;-78
2023/08/30 07:05:14;;;;;;;;;;;16.50;99.90;;;;;;5096563;28;19943;-77
2023/08/30 07:07:40;;;;;;;;;;;16.50;99.90;;;;;;5096222;28;19911;-78
2023/08/30 07:10:06;;;;;;;;;;;16.70;99.90;;;;;;5096917;28;19904;-78
2023/08/30 07:12:31;;;;;;;;;;;16.70;99.90;;;;;;5082609;28;19911;-82
2023/08/30 07:14:57;;;;;;;;;;;16.80;99.90;;;;;;5083055;28;20292;-81
2023/08/30 07:17:22;;;;;;;;;;;16.80;99.90;;;;;;5095733;28;19957;-77
2023/08/30 07:19:48;;;;;;;;;;;16.90;99.90;;;;;;5087498;28;19985;-77
2023/08/30 07:22:16;;;;;;;;;;;16.90;99.90;;;;;;5090470;28;19964;-75
2023/08/30 07:24:44;;;;;;;;;;;16.90;99.90;;;;;;5094897;28;19937;-76
2023/08/30 07:27:11;;;;;;;;;;;16.90;99.90;;;;;;5094096;28;20284;-80
2023/08/30 07:29:36;;;;;;;;;;;17.00;99.90;;;;;;5095669;28;19904;-79
2023/08/30 07:32:02;;;;;;;;;;;17.10;99.90;;;;;;5095882;28;19911;-77
2023/08/30 07:34:27;;;;;;;;;;;17.10;99.90;;;;;;5093728;28;19919;-78
2023/08/30 07:36:54;;;;;;;;;;;17.10;99.90;;;;;;5093507;28;20372;-78
2023/08/30 07:39:19;;;;;;;;;;;17.20;99.90;;;;;;5097161;28;19978;-78
2023/08/30 07:41:45;;;;;;;;;;;17.30;99.90;;;;;;5091474;28;19913;-77
2023/08/30 07:44:10;;;;;;;;;;;17.30;99.90;;;;;;5096529;28;19952;-77
2023/08/30 07:46:36;;;;;;;;;;;17.30;99.90;;;;;;5092752;28;19958;-77
2023/08/30 07:49:02;;;;;;;;;;;17.30;99.90;;;;;;5094730;28;20343;-77
2023/08/30 07:51:27;;;;;;;;;;;17.40;99.90;;;;;;5096043;28;19994;-81
2023/08/30 07:53:53;;;;;;;;;;;17.40;99.90;;;;;;5094203;28;19967;-77
2023/08/30 07:56:18;;;;;;;;;;;17.40;99.90;;;;;;5094010;28;19908;-78
2023/08/30 07:58:44;;;;;;;;;;;17.50;99.90;;;;;;5096916;28;19912;-79
2023/08/30 08:01:10;;;;;;;;;;;17.60;99.90;;;;;;5092313;28;19908;-79
2023/08/30 08:03:35;;;;;;;;;;;17.60;99.90;;;;;;5098493;28;19908;-77
2023/08/30 08:06:01;;;;;;;;;;;17.70;99.90;;;;;;5094922;28;20444;-76
2023/08/30 08:08:26;;;;;;;;;;;17.90;99.90;;;;;;5093298;28;21647;-77
2023/08/30 08:10:52;;;;;;;;;;;18.00;99.90;;;;;;5097093;28;19904;-77
2023/08/30 08:13:17;;;;;;;;;;;18.20;99.90;;;;;;5097803;28;19962;-77
2023/08/30 08:15:44;;;;;;;;;;;18.30;99.90;;;;;;5097269;28;19908;-79
2023/08/30 08:18:09;;;;;;;;;;;18.40;99.90;;;;;;5095862;28;19908;-79
2023/08/30 08:20:36;;;;;;;;;;;18.30;99.90;;;;;;5096732;28;19999;-77
2023/08/30 08:23:02;;;;;;;;;;;18.30;99.90;;;;;;5094290;28;20279;-77
2023/08/30 08:25:27;;;;;;;;;;;18.40;99.90;;;;;;5093369;28;19924;-77
2023/08/30 08:27:53;;;;;;;;;;;18.40;99.90;;;;;;5096181;28;19908;-77
2023/08/30 08:30:20;;;;;;;;;;;18.40;99.90;;;;;;5091011;28;19919;-77
2023/08/30 08:32:47;;;;;;;;;;;18.50;99.90;;;;;;5095654;28;19994;-78
2023/08/30 08:35:13;;;;;;;;;;;18.60;99.90;;;;;;5092814;28;19912;-77
2023/08/30 08:37:38;;;;;;;;;;;18.60;99.90;;;;;;5093919;28;19996;-80
2023/08/30 08:40:08;;;;;;;;;;;18.70;99.90;;;;;;5092865;28;19951;-75
2023/08/30 08:42:34;;;;;;;;;;;18.70;99.90;;;;;;5088469;28;20333;-77
2023/08/30 08:45:00;;;;;;;;;;;18.70;99.90;;;;;;5093165;28;19908;-80
2023/08/30 08:47:25;;;;;;;;;;;18.80;99.90;;;;;;5096269;28;19941;-80
2023/08/30 08:49:51;;;;;;;;;;;18.60;99.90;;;;;;5093489;28;19998;-78
2023/08/30 08:52:17;;;;;;;;;;;18.60;99.90;;;;;;5093665;28;19908;-77
2023/08/30 08:54:43;;;;;;;;;;;18.60;99.90;;;;;;5095610;28;19915;-77
2023/08/30 08:57:09;;;;;;;;;;;18.70;99.90;;;;;;5091091;28;19950;-78
2023/08/30 08:59:35;;;;;;;;;;;18.90;99.90;;;;;;5091033;28;19915;-77
2023/08/30 09:02:01;;;;;;;;;;;19.10;99.90;;;;;;5093490;28;20434;-77
2023/08/30 09:04:28;;;;;;;;;;;19.10;99.90;;;;;;5094142;28;19929;-77
2023/08/30 09:06:54;;;;;;;;;;;19.30;99.90;;;;;;5095717;28;19912;-77
2023/08/30 09:09:20;;;;;;;;;;;19.50;99.90;;;;;;5094222;28;19935;-78
2023/08/30 09:11:45;;;;;;;;;;;19.60;99.90;;;;;;5094727;28;19908;-77
2023/08/30 09:14:11;;;;;;;;;;;19.70;99.90;;;;;;5093343;28;19978;-76
2023/08/30 09:16:36;;;;;;;;;;;19.80;99.90;;;;;;5095700;28;20025;-77
2023/08/30 09:19:03;;;;;;;;;;;19.90;99.90;;;;;;5091471;28;19907;-77
2023/08/30 09:21:29;;;;;;;;;;;19.90;99.90;;;;;;5092718;28;19904;-76
2023/08/30 09:24:02;;;;;;;;;;;19.90;99.90;;;;;;5091149;28;20300;-75
2023/08/30 09:26:29;;;;;;;;;;;20.00;99.90;;;;;;5094479;28;19927;-77
2023/08/30 09:28:55;;;;;;;;;;;20.00;99.90;;;;;;5092611;28;19913;-77
2023/08/30 09:31:21;;;;;;;;;;;19.80;99.90;;;;;;5091094;28;20348;-76
2023/08/30 09:33:49;;;;;;;;;;;19.80;99.90;;;;;;5091426;28;19935;-77
2023/08/30 09:36:15;;;;;;;;;;;19.80;99.90;;;;;;5091131;28;20310;-77
2023/08/30 09:38:40;;;;;;;;;;;19.40;99.90;;;;;;5088778;28;20011;-77
2023/08/30 09:41:06;;;;;;;;;;;19.10;99.90;;;;;;5094450;28;19957;-76
2023/08/30 09:43:32;;;;;;;;;;;19.10;99.90;;;;;;5092777;28;19912;-77
2023/08/30 09:45:57;;;;;;;;;;;19.00;99.90;;;;;;5093222;28;19911;-78
2023/08/30 09:48:27;;;;;;;;;;;19.00;99.90;;;;;;5093339;28;19918;-78
2023/08/30 09:50:56;;;;;;;;;;;19.10;99.90;;;;;;5094830;28;19904;-77
2023/08/30 09:53:25;;;;;;;;;;;19.10;99.90;;;;;;5093952;28;20030;-77
2023/08/30 09:55:52;;;;;;;;;;;19.20;99.90;;;;;;5093129;28;19951;-78
2023/08/30 09:58:18;;;;;;;;;;;19.20;99.90;;;;;;5091759;28;19962;-79
2023/08/30 10:00:43;;;;;;;;;;;19.20;99.90;;;;;;5094813;28;19908;-78
2023/08/30 10:03:09;;;;;;;;;;;19.40;99.90;;;;;;5092951;28;19907;-77
2023/08/30 10:05:35;;;;;;;;;;;19.50;99.90;;;;;;5093990;28;19915;-77
2023/08/30 10:08:02;;;;;;;;;;;19.70;99.90;;;;;;5090695;28;19904;-77
2023/08/30 10:10:29;;;;;;;;;;;19.80;99.90;;;;;;5095767;28;20030;-77
2023/08/30 10:12:55;;;;;;;;;;;20.20;99.90;;;;;;5092454;28;19908;-77
2023/08/30 10:15:21;;;;;;;;;;;20.20;99.90;;;;;;5093047;28;20347;-77
2023/08/30 10:17:48;;;;;;;;;;;20.20;99.90;;;;;;5090322;28;19904;-79
2023/08/30 10:20:14;;;;;;;;;;;20.30;99.90;;;;;;5094785;28;19934;-77
2023/08/30 10:22:40;;;;;;;;;;;20.20;99.90;;;;;;5091795;28;19954;-78
2023/08/30 10:25:08;;;;;;;;;;;20.20;99.90;;;;;;5092183;28;19916;-78
2023/08/30 10:27:34;;;;;;;;;;;20.20;99.90;;;;;;5094419;28;19904;-79
2023/08/30 10:30:05;;;;;;;;;;;20.00;99.90;;;;;;5089935;28;20380;-79
2023/08/30 10:32:31;;;;;;;;;;;20.00;99.90;;;;;;5090428;28;19978;-79
2023/08/30 10:35:00;;;;;;;;;;;20.00;99.90;;;;;;5089728;28;19908;-78
2023/08/30 10:37:27;;;;;;;;;;;20.20;99.90;;;;;;5089404;28;20458;-82
2023/08/30 10:39:53;;;;;;;;;;;20.00;99.90;;;;;;5089225;28;20046;-77
2023/08/30 10:42:23;;;;;;;;;;;20.20;99.90;;;;;;5089477;28;19976;-79
2023/08/30 10:45:05;;;;;;;;;;;20.40;99.90;;;;;;5090334;28;19921;-79
2023/08/30 10:47:31;;;;;;;;;;;20.40;99.90;;;;;;5093390;28;19916;-78
2023/08/30 10:49:57;;;;;;;;;;;20.40;99.90;;;;;;5087118;28;19997;-78
2023/08/30 10:52:23;;;;;;;;;;;20.50;99.90;;;;;;5093130;28;20283;-78
2023/08/30 10:54:50;;;;;;;;;;;20.50;99.90;;;;;;5093652;28;19911;-78
2023/08/30 10:57:20;;;;;;;;;;;20.30;99.90;;;;;;5092562;28;20395;-77
2023/08/30 11:00:05;;;;;;;;;;;20.20;99.90;;;;;;5089701;28;20002;-78
2023/08/30 11:02:31;;;;;;;;;;;20.00;99.90;;;;;;5091910;28;19911;-78
2023/08/30 11:04:57;;;;;;;;;;;20.00;99.90;;;;;;5091026;28;19904;-79
2023/08/30 11:07:25;;;;;;;;;;;19.90;99.90;;;;;;5091746;28;19927;-77
2023/08/30 11:09:51;;;;;;;;;;;19.90;99.90;;;;;;5093409;28;19954;-77
2023/08/30 11:12:18;;;;;;;;;;;20.00;99.90;;;;;;5089932;28;19904;-78
2023/08/30 11:14:43;;;;;;;;;;;20.00;99.90;;;;;;5094218;28;19908;-78
2023/08/30 11:17:11;;;;;;;;;;;20.20;99.90;;;;;;5089680;28;19908;-77
2023/08/30 11:19:37;;;;;;;;;;;20.70;99.90;;;;;;5092283;28;19951;-78
2023/08/30 11:22:03;;;;;;;;;;;21.20;99.90;;;;;;5092211;28;20329;-78
2023/08/30 11:24:28;;;;;;;;;;;21.40;99.90;;;;;;5090421;28;20333;-77
2023/08/30 11:26:55;;;;;;;;;;;21.40;99.90;;;;;;5092392;28;20463;-78
2023/08/30 11:29:20;;;;;;;;;;;21.10;99.90;;;;;;5088914;28;19908;-77
2023/08/30 11:31:46;;;;;;;;;;;21.00;99.90;;;;;;5092127;28;19908;-79
2023/08/30 11:34:12;;;;;;;;;;;21.10;99.90;;;;;;5094057;28;19915;-78
2023/08/30 11:36:38;;;;;;;;;;;21.00;99.90;;;;;;5092400;28;19912;-78
2023/08/30 11:39:04;;;;;;;;;;;20.90;99.90;;;;;;5093785;28;19904;-78
2023/08/30 11:41:31;;;;;;;;;;;21.00;99.90;;;;;;5091102;28;19904;-77
2023/08/30 11:43:58;;;;;;;;;;;21.00;99.90;;;;;;5087159;28;19904;-79
2023/08/30 11:46:23;;;;;;;;;;;21.10;99.90;;;;;;5094048;28;19904;-76
2023/08/30 11:48:50;;;;;;;;;;;21.20;99.90;;;;;;5092778;28;19904;-76
2023/08/30 11:51:16;;;;;;;;;;;21.60;99.90;;;;;;5086830;28;19912;-76
2023/08/30 11:53:42;;;;;;;;;;;21.90;99.90;;;;;;5085379;28;20375;-75
2023/08/30 11:56:07;;;;;;;;;;;22.00;99.90;;;;;;5089158;28;19907;-75
2023/08/30 11:58:34;;;;;;;;;;;22.20;99.90;;;;;;5089583;28;19907;-74
2023/08/30 12:00:59;;;;;;;;;;;22.20;99.90;;;;;;5092738;28;19915;-75
2023/08/30 12:03:28;;;;;;;;;;;22.10;99.90;;;;;;5095602;28;19908;-75
2023/08/30 12:05:54;;;;;;;;;;;22.10;99.90;;;;;;5094702;28;19911;-77
2023/08/30 12:08:21;;;;;;;;;;;22.00;99.90;;;;;;5096557;28;19927;-75
2023/08/30 12:10:46;;;;;;;;;;;22.10;99.90;;;;;;5097511;28;19915;-76
2023/08/30 12:13:24;;;;;;;;;;;21.90;99.90;;;;;;5098876;28;19912;-75
2023/08/30 12:15:53;;;;;;;;;;;22.00;99.90;;;;;;5097535;28;19993;-74
2023/08/30 12:18:37;;;;;;;;;;;22.10;99.90;;;;;;5084766;28;20394;-74
2023/08/30 12:21:03;;;;;;;;;;;22.10;99.90;;;;;;5082623;28;19904;-75
2023/08/30 12:23:29;;;;;;;;;;;22.00;99.90;;;;;;5092257;28;19908;-75
2023/08/30 12:25:59;;;;;;;;;;;22.20;99.90;;;;;;5098251;28;20007;-76
2023/08/30 12:28:25;;;;;;;;;;;22.30;99.90;;;;;;5096723;28;19998;-76
2023/08/30 12:30:51;;;;;;;;;;;22.50;99.90;;;;;;5098397;28;20006;-75
2023/08/30 12:33:17;;;;;;;;;;;23.00;99.90;;;;;;5098478;28;19939;-76
2023/08/30 12:35:43;;;;;;;;;;;23.10;99.90;;;;;;5085044;28;19908;-77
2023/08/30 12:38:09;;;;;;;;;;;22.90;99.90;;;;;;5096605;28;19999;-77
2023/08/30 12:40:35;;;;;;;;;;;22.60;99.90;;;;;;5097018;28;19914;-77
2023/08/30 12:43:00;;;;;;;;;;;22.70;99.90;;;;;;5098520;28;20342;-78
2023/08/30 12:45:26;;;;;;;;;;;22.70;99.90;;;;;;5098679;28;19911;-77
2023/08/30 12:47:51;;;;;;;;;;;22.70;99.90;;;;;;5098404;28;19915;-76
2023/08/30 12:50:17;;;;;;;;;;;22.50;99.90;;;;;;5096913;28;19908;-77
2023/08/30 12:52:42;;;;;;;;;;;22.40;99.90;;;;;;5098188;28;20295;-77
2023/08/30 12:55:08;;;;;;;;;;;22.20;99.90;;;;;;5096742;28;19904;-78
2023/08/30 12:57:34;;;;;;;;;;;22.20;99.90;;;;;;5096844;28;19908;-76
2023/08/30 12:59:59;;;;;;;;;;;22.30;99.90;;;;;;5097994;28;19953;-77
2023/08/30 13:02:25;;;;;;;;;;;22.30;99.90;;;;;;5098233;28;19908;-78
2023/08/30 13:04:50;;;;;;;;;;;22.20;99.90;;;;;;5098249;28;20368;-76
2023/08/30 13:07:17;;;;;;;;;;;22.30;99.90;;;;;;5097736;28;19908;-74
2023/08/30 13:09:42;;;;;;;;;;;22.30;99.90;;;;;;5094548;28;19904;-76
2023/08/30 13:12:08;;;;;;;;;;;22.40;99.90;;;;;;5095104;28;20268;-75
2023/08/30 13:14:33;;;;;;;;;;;22.40;99.90;;;;;;5095710;28;19931;-77
2023/08/30 13:16:59;;;;;;;;;;;22.60;99.90;;;;;;5094301;28;19912;-76
2023/08/30 13:19:24;;;;;;;;;;;23.10;99.90;;;;;;5084796;28;19966;-77
2023/08/30 13:21:50;;;;;;;;;;;23.50;99.90;;;;;;5095364;28;20422;-76
2023/08/30 13:24:16;;;;;;;;;;;23.70;99.90;;;;;;5087101;28;19951;-73
2023/08/30 13:26:41;;;;;;;;;;;23.60;99.90;;;;;;5097572;28;19935;-77
2023/08/30 13:29:07;;;;;;;;;;;23.20;99.90;;;;;;5097419;28;19939;-77
2023/08/30 13:31:33;;;;;;;;;;;23.40;99.90;;;;;;5097446;28;19904;-77
2023/08/30 13:33:59;;;;;;;;;;;23.40;99.90;;;;;;5097262;28;20376;-77
2023/08/30 13:36:25;;;;;;;;;;;23.20;99.90;;;;;;5097687;28;19936;-75
2023/08/30 13:38:51;;;;;;;;;;;23.10;99.90;;;;;;5095877;28;19904;-77
2023/08/30 13:41:16;;;;;;;;;;;23.10;99.90;;;;;;5096307;28;19904;-75
2023/08/30 13:43:42;;;;;;;;;;;23.30;99.90;;;;;;5096825;28;19949;-76
2023/08/30 13:46:07;;;;;;;;;;;23.30;99.90;;;;;;5097456;28;19939;-77
2023/08/30 13:48:33;;;;;;;;;;;23.40;99.90;;;;;;5097463;28;20006;-77
2023/08/30 13:50:58;;;;;;;;;;;23.60;99.90;;;;;;5096873;28;19912;-75
2023/08/30 13:53:25;;;;;;;;;;;23.60;99.90;;;;;;5096990;28;19923;-76
2023/08/30 13:55:51;;;;;;;;;;;23.70;99.90;;;;;;5095488;28;19908;-74
2023/08/30 13:58:16;;;;;;;;;;;23.50;99.90;;;;;;5096506;28;20448;-76
2023/08/30 14:00:44;;;;;;;;;;;23.60;99.90;;;;;;5097775;28;19904;-75
2023/08/30 14:03:09;;;;;;;;;;;23.40;99.90;;;;;;5092467;28;19951;-76
2023/08/30 14:05:35;;;;;;;;;;;23.40;99.90;;;;;;5090956;28;19912;-76
2023/08/30 14:08:00;;;;;;;;;;;23.50;99.90;;;;;;5097746;28;20002;-76
2023/08/30 14:10:26;;;;;;;;;;;23.50;99.90;;;;;;5092885;28;19908;-74